Time;durP1;ratioP1;P1;durP2;ratioP2;P2;SDS_P1;SDS_P2;PMS_P1;PMS_P2;Temp;Humidity;BMP_temperature;BMP_pressure;BME280_temperature;BME280_humidity;BME280_pressure;Samples;Min_cycle;Max_cycle;Signal;HPM_P1;HPM_P2
2023/04/16 00:00:49;;;;;;;2.08;1.48;;;6.10;99.90;;;;;;5037505;28;20034;-72
2023/04/16 00:03:15;;;;;;;2.58;1.60;;;6.10;99.90;;;;;;5038259;28;20026;-72
2023/04/16 00:05:40;;;;;;;2.42;2.17;;;6.10;99.90;;;;;;5038335;28;20029;-72
2023/04/16 00:08:06;;;;;;;2.10;1.85;;;6.10;99.90;;;;;;5037219;28;20099;-71
2023/04/16 00:10:33;;;;;;;1.88;1.58;;;6.10;99.90;;;;;;5037995;28;20010;-71
2023/04/16 00:12:58;;;;;;;1.85;1.75;;;6.00;99.90;;;;;;5038226;28;20038;-71
2023/04/16 00:15:24;;;;;;;3.15;2.35;;;6.00;99.90;;;;;;5037522;28;20386;-71
2023/04/16 00:17:49;;;;;;;2.25;1.92;;;6.00;99.90;;;;;;5037700;28;20069;-70
2023/04/16 00:20:15;;;;;;;2.53;2.20;;;6.00;99.90;;;;;;5037233;28;20083;-70
2023/04/16 00:22:41;;;;;;;2.20;2.00;;;6.00;99.90;;;;;;5037467;28;20025;-71
2023/04/16 00:25:06;;;;;;;2.67;2.13;;;6.00;99.90;;;;;;5037866;28;20408;-72
2023/04/16 00:27:32;;;;;;;2.63;2.42;;;6.00;99.90;;;;;;5020219;28;20037;-71
2023/04/16 00:29:57;;;;;;;2.90;2.40;;;6.10;99.90;;;;;;5037685;28;20030;-71
2023/04/16 00:32:23;;;;;;;2.53;2.33;;;6.10;99.90;;;;;;5036591;28;20053;-73
2023/04/16 00:34:49;;;;;;;3.13;2.20;;;6.10;99.90;;;;;;5036591;28;20076;-72
2023/04/16 00:37:14;;;;;;;2.50;2.10;;;6.00;99.90;;;;;;5037165;28;20029;-70
2023/04/16 00:39:40;;;;;;;2.50;2.30;;;6.00;99.90;;;;;;5037669;28;20025;-71
2023/04/16 00:42:05;;;;;;;3.20;2.55;;;5.90;99.90;;;;;;5037489;28;20049;-71
2023/04/16 00:44:33;;;;;;;2.97;2.67;;;5.90;99.90;;;;;;5037760;28;20159;-71
2023/04/16 00:47:00;;;;;;;3.25;2.55;;;5.90;99.90;;;;;;5037572;28;20065;-71
2023/04/16 00:49:26;;;;;;;3.13;2.22;;;5.90;99.90;;;;;;5037496;28;20052;-71
2023/04/16 00:51:51;;;;;;;3.17;2.88;;;5.90;99.90;;;;;;5037068;28;20075;-71
2023/04/16 00:54:17;;;;;;;1.98;1.88;;;6.00;99.90;;;;;;5037298;28;20033;-71
2023/04/16 00:56:43;;;;;;;4.55;2.70;;;6.00;99.90;;;;;;5036771;28;20370;-71
2023/04/16 00:59:09;;;;;;;2.60;2.40;;;6.00;99.90;;;;;;5036768;28;20060;-71
2023/04/16 01:01:35;;;;;;;2.63;2.30;;;6.10;99.90;;;;;;5035906;28;20068;-71
2023/04/16 01:04:00;;;;;;;2.97;2.65;;;6.10;99.90;;;;;;5037224;28;20040;-72
2023/04/16 01:06:26;;;;;;;3.25;2.33;;;6.00;99.90;;;;;;5037395;28;20025;-71
2023/04/16 01:08:52;;;;;;;2.95;2.40;;;6.00;99.90;;;;;;5036242;28;20025;-71
2023/04/16 01:11:17;;;;;;;4.70;2.08;;;6.00;99.90;;;;;;5036817;28;20033;-74
2023/04/16 01:13:43;;;;;;;3.15;2.63;;;6.10;99.90;;;;;;5036333;28;20026;-71
2023/04/16 01:16:10;;;;;;;2.83;2.50;;;6.10;99.90;;;;;;5036475;28;20026;-71
2023/04/16 01:18:37;;;;;;;2.85;2.40;;;6.00;99.90;;;;;;5036327;28;20029;-72
2023/04/16 01:21:03;;;;;;;3.10;2.60;;;6.10;99.90;;;;;;5036607;28;20033;-72
2023/04/16 01:23:29;;;;;;;4.38;2.60;;;6.10;99.90;;;;;;5036587;28;20037;-71
2023/04/16 01:25:55;;;;;;;4.18;2.88;;;6.10;99.90;;;;;;5036288;28;20071;-71
2023/04/16 01:28:21;;;;;;;3.95;2.83;;;6.10;99.90;;;;;;5036574;28;20034;-71
2023/04/16 01:30:46;;;;;;;3.40;3.08;;;6.10;99.90;;;;;;5035341;28;20428;-70
2023/04/16 01:33:13;;;;;;;3.90;3.00;;;6.20;99.90;;;;;;5036095;28;20483;-72
2023/04/16 01:35:42;;;;;;;2.70;2.50;;;6.10;99.90;;;;;;5036398;28;20025;-71
2023/04/16 01:38:09;;;;;;;4.07;2.88;;;6.20;99.90;;;;;;5035938;28;20025;-70
2023/04/16 01:40:35;;;;;;;2.88;2.67;;;6.20;99.90;;;;;;5035930;28;20065;-71
2023/04/16 01:43:01;;;;;;;3.40;2.80;;;6.20;99.90;;;;;;5035714;28;20060;-72
2023/04/16 01:45:27;;;;;;;3.10;2.80;;;6.20;99.90;;;;;;5018513;28;20373;-71
2023/04/16 01:47:52;;;;;;;3.95;3.13;;;6.20;99.90;;;;;;5036344;28;20528;-71
2023/04/16 01:50:20;;;;;;;3.33;3.03;;;6.20;99.90;;;;;;5036359;28;20449;-72
2023/04/16 01:52:46;;;;;;;3.00;2.75;;;6.20;99.90;;;;;;5036190;28;20029;-71
2023/04/16 01:55:12;;;;;;;3.53;2.67;;;6.20;99.90;;;;;;5036141;28;20030;-71
2023/04/16 01:57:38;;;;;;;3.05;2.75;;;6.20;99.90;;;;;;5035697;28;20142;-71
2023/04/16 02:00:04;;;;;;;2.80;2.53;;;6.20;99.90;;;;;;5035530;28;20068;-71
2023/04/16 02:02:30;;;;;;;3.75;2.90;;;6.20;99.90;;;;;;5035040;28;20030;-71
2023/04/16 02:04:56;;;;;;;4.05;3.08;;;6.20;99.90;;;;;;5035873;28;20420;-71
2023/04/16 02:07:23;;;;;;;4.05;3.08;;;6.20;99.90;;;;;;5035495;28;20416;-71
2023/04/16 02:09:50;;;;;;;3.50;2.83;;;6.20;99.90;;;;;;5035073;28;20171;-72
2023/04/16 02:12:15;;;;;;;2.60;2.40;;;6.20;99.90;;;;;;5035147;28;20369;-70
2023/04/16 02:14:42;;;;;;;3.25;2.92;;;6.20;99.90;;;;;;5035465;28;20056;-72
2023/04/16 02:17:08;;;;;;;4.93;2.90;;;6.20;99.90;;;;;;5035736;28;20033;-72
2023/04/16 02:19:34;;;;;;;3.92;2.75;;;6.20;99.90;;;;;;5035235;28;20368;-72
2023/04/16 02:22:00;;;;;;;2.83;2.53;;;6.20;99.90;;;;;;5034682;28;20124;-71
2023/04/16 02:24:26;;;;;;;3.40;2.80;;;6.20;99.90;;;;;;5034683;28;20075;-71
2023/04/16 02:26:52;;;;;;;3.42;2.67;;;6.20;99.90;;;;;;5035589;28;20033;-71
2023/04/16 02:29:18;;;;;;;2.88;2.33;;;6.20;99.90;;;;;;5035453;28;20103;-72
2023/04/16 02:31:45;;;;;;;4.70;2.63;;;6.20;99.90;;;;;;5034583;28;20038;-71
2023/04/16 02:34:10;;;;;;;3.10;2.80;;;6.10;99.90;;;;;;5035451;28;20034;-71
2023/04/16 02:36:36;;;;;;;2.90;2.60;;;6.10;99.90;;;;;;5035538;28;20030;-71
2023/04/16 02:39:02;;;;;;;2.80;2.38;;;6.10;99.90;;;;;;5035646;28;20029;-71
2023/04/16 02:41:27;;;;;;;4.45;2.80;;;6.10;99.90;;;;;;5034987;28;20531;-72
2023/04/16 02:43:53;;;;;;;3.13;2.53;;;6.10;99.90;;;;;;5035240;28;20163;-71
2023/04/16 02:46:18;;;;;;;3.47;2.65;;;6.10;99.90;;;;;;5035492;28;20029;-71
2023/04/16 02:48:44;;;;;;;3.83;2.65;;;6.10;99.90;;;;;;5035236;28;20029;-71
2023/04/16 02:51:09;;;;;;;4.78;3.30;;;6.10;99.90;;;;;;5034877;28;20147;-70
2023/04/16 02:53:35;;;;;;;2.92;2.33;;;6.10;99.90;;;;;;5034850;28;20029;-71
2023/04/16 02:56:01;;;;;;;8.70;3.97;;;6.10;99.90;;;;;;5035404;28;20092;-72
2023/04/16 02:58:26;;;;;;;3.63;3.25;;;6.10;99.90;;;;;;5034819;28;20038;-72
2023/04/16 03:00:53;;;;;;;3.30;3.00;;;6.10;99.90;;;;;;5034445;28;20116;-72
2023/04/16 03:03:19;;;;;;;3.72;3.00;;;6.10;99.90;;;;;;5034441;28;20354;-72
2023/04/16 03:05:44;;;;;;;3.95;3.00;;;6.10;99.90;;;;;;5034234;28;20060;-72
2023/04/16 03:08:10;;;;;;;7.45;3.63;;;6.10;99.90;;;;;;5035251;28;20030;-72
2023/04/16 03:10:36;;;;;;;19.77;7.85;;;6.10;99.90;;;;;;5034792;28;20029;-72
2023/04/16 03:13:02;;;;;;;4.57;3.45;;;6.10;99.90;;;;;;5017078;28;20025;-72
2023/04/16 03:15:28;;;;;;;3.95;3.30;;;6.10;99.90;;;;;;5034899;28;20025;-71
2023/04/16 03:17:54;;;;;;;2.95;2.65;;;6.10;99.90;;;;;;5033607;28;20033;-71
2023/04/16 03:20:20;;;;;;;4.35;2.85;;;6.10;99.90;;;;;;5035375;28;20033;-71
2023/04/16 03:22:46;;;;;;;4.35;3.72;;;6.10;99.90;;;;;;5034971;28;20025;-71
2023/04/16 03:25:11;;;;;;;6.43;3.80;;;6.20;99.90;;;;;;5035115;28;20105;-71
2023/04/16 03:27:40;;;;;;;3.08;2.60;;;6.20;99.90;;;;;;5034868;28;20118;-72
2023/04/16 03:30:06;;;;;;;;;;;6.20;99.90;;;;;;5035029;28;20021;-71
2023/04/16 03:32:32;;;;;;;4.72;3.53;;;6.20;99.90;;;;;;5037359;28;19952;-71
2023/04/16 03:34:57;;;;;;;4.20;3.17;;;6.20;99.90;;;;;;5038752;28;20519;-72
2023/04/16 03:37:23;;;;;;;3.72;3.42;;;6.20;99.90;;;;;;5038617;28;20116;-71
2023/04/16 03:39:48;;;;;;;4.55;2.55;;;6.20;99.90;;;;;;5038529;28;20484;-71
2023/04/16 03:42:14;;;;;;;3.10;2.63;;;6.20;99.90;;;;;;5038617;28;20028;-71
2023/04/16 03:44:40;;;;;;;3.60;3.00;;;6.20;99.90;;;;;;5038588;28;20046;-71
2023/04/16 03:47:05;;;;;;;3.42;3.13;;;6.20;99.90;;;;;;5038800;28;20061;-71
2023/04/16 03:49:31;;;;;;;4.03;3.03;;;6.20;99.90;;;;;;5037889;28;20029;-70
2023/04/16 03:51:56;;;;;;;3.67;3.10;;;6.20;99.90;;;;;;5038300;28;20029;-72
2023/04/16 03:54:22;;;;;;;4.18;3.08;;;6.20;99.90;;;;;;5038040;28;20496;-71
2023/04/16 03:56:48;;;;;;;3.45;2.75;;;6.20;99.90;;;;;;5038295;28;20026;-75
2023/04/16 03:59:13;;;;;;;3.33;3.03;;;6.20;99.90;;;;;;5037825;28;20025;-71
2023/04/16 04:01:39;;;;;;;3.97;3.10;;;6.20;99.90;;;;;;5037468;28;20500;-71
2023/04/16 04:04:05;;;;;;;3.13;2.60;;;6.20;99.90;;;;;;5038009;28;20053;-72
2023/04/16 04:06:31;;;;;;;3.22;2.95;;;6.20;99.90;;;;;;5038333;28;20096;-71
2023/04/16 04:08:57;;;;;;;3.50;2.88;;;6.20;99.90;;;;;;5038151;28;20026;-71
2023/04/16 04:11:23;;;;;;;4.45;2.60;;;6.20;99.90;;;;;;5037991;28;20029;-72
2023/04/16 04:13:49;;;;;;;3.92;3.22;;;6.20;99.90;;;;;;5037759;28;20044;-72
2023/04/16 04:16:14;;;;;;;4.38;3.53;;;6.20;99.90;;;;;;5038056;28;20432;-72
2023/04/16 04:18:40;;;;;;;3.22;2.80;;;6.20;99.90;;;;;;5038452;28;20056;-72
2023/04/16 04:21:06;;;;;;;3.83;3.35;;;6.20;99.90;;;;;;5037980;28;20021;-71
2023/04/16 04:23:32;;;;;;;3.38;2.97;;;6.20;99.90;;;;;;5038287;28;20108;-72
2023/04/16 04:25:58;;;;;;;3.40;3.10;;;6.20;99.90;;;;;;5038152;28;20124;-72
2023/04/16 04:28:24;;;;;;;3.78;2.90;;;6.20;99.90;;;;;;5038013;28;20037;-72
2023/04/16 04:30:49;;;;;;;3.90;3.50;;;6.20;99.90;;;;;;5037785;28;20034;-71
2023/04/16 04:33:15;;;;;;;4.00;3.35;;;6.20;99.90;;;;;;5038024;28;20044;-71
2023/04/16 04:35:40;;;;;;;4.60;3.22;;;6.20;99.90;;;;;;5037181;28;20496;-71
2023/04/16 04:38:06;;;;;;;3.05;2.75;;;6.20;99.90;;;;;;5036946;28;20029;-71
2023/04/16 04:40:32;;;;;;;3.67;3.35;;;6.20;99.90;;;;;;5037284;28;20037;-70
2023/04/16 04:42:57;;;;;;;3.45;3.15;;;6.20;99.90;;;;;;5036335;28;20056;-70
2023/04/16 04:45:24;;;;;;;4.10;3.70;;;6.30;99.90;;;;;;5036809;28;20120;-71
2023/04/16 04:47:51;;;;;;;3.63;3.30;;;6.20;99.90;;;;;;5037029;28;20021;-72
2023/04/16 04:50:17;;;;;;;3.58;2.95;;;6.30;99.90;;;;;;5037024;28;20465;-74
2023/04/16 04:52:42;;;;;;;3.72;3.15;;;6.30;99.90;;;;;;5036003;28;20064;-71
2023/04/16 04:55:08;;;;;;;3.88;3.15;;;6.30;99.90;;;;;;5037118;28;20037;-71
2023/04/16 04:57:34;;;;;;;4.22;3.42;;;6.30;99.90;;;;;;5036259;28;20031;-70
2023/04/16 05:00:02;;;;;;;3.40;3.00;;;6.20;99.90;;;;;;5037402;28;20046;-72
2023/04/16 05:02:27;;;;;;;4.07;3.58;;;6.30;99.90;;;;;;5036174;28;20037;-71
2023/04/16 05:04:53;;;;;;;3.65;3.25;;;6.30;99.90;;;;;;5036487;28;20057;-71
2023/04/16 05:07:18;;;;;;;3.85;3.45;;;6.30;99.90;;;;;;5036750;28;20029;-71
2023/04/16 05:09:44;;;;;;;3.58;2.97;;;6.30;99.90;;;;;;5036396;28;20135;-71
2023/04/16 05:12:09;;;;;;;4.15;3.33;;;6.30;99.90;;;;;;5037086;28;20025;-71
2023/04/16 05:14:35;;;;;;;3.60;3.05;;;6.30;99.90;;;;;;5037408;28;20038;-71
2023/04/16 05:17:01;;;;;;;3.88;3.22;;;6.30;99.90;;;;;;5036344;28;20393;-72
2023/04/16 05:19:26;;;;;;;4.15;3.10;;;6.40;99.90;;;;;;5036754;28;20060;-72
2023/04/16 05:21:53;;;;;;;3.92;3.42;;;6.30;99.90;;;;;;5036447;28;20040;-72
2023/04/16 05:24:19;;;;;;;3.75;3.33;;;6.40;99.90;;;;;;5036679;28;20068;-71
2023/04/16 05:26:44;;;;;;;3.95;3.38;;;6.40;99.90;;;;;;5036622;28;20029;-71
2023/04/16 05:29:10;;;;;;;3.20;2.60;;;6.40;99.90;;;;;;5037480;28;20041;-71
2023/04/16 05:31:35;;;;;;;3.95;3.55;;;6.50;99.90;;;;;;5036135;28;20056;-71
2023/04/16 05:34:01;;;;;;;4.63;3.20;;;6.40;99.90;;;;;;5036259;28;20381;-71
2023/04/16 05:36:27;;;;;;;4.40;3.45;;;6.40;99.90;;;;;;5036434;28;20026;-71
2023/04/16 05:38:52;;;;;;;4.20;3.80;;;6.40;99.90;;;;;;5036264;28;20531;-71
2023/04/16 05:41:18;;;;;;;3.40;3.10;;;6.40;99.90;;;;;;5035756;28;20025;-71
2023/04/16 05:43:43;;;;;;;3.72;3.00;;;6.50;99.90;;;;;;5037321;28;20142;-69
2023/04/16 05:46:09;;;;;;;2.97;2.70;;;6.40;99.90;;;;;;5035797;28;20483;-71
2023/04/16 05:48:35;;;;;;;3.15;2.65;;;6.50;99.90;;;;;;5036378;28;20029;-71
2023/04/16 05:51:01;;;;;;;3.20;2.90;;;6.50;99.90;;;;;;5036231;28;20095;-72
2023/04/16 05:53:27;;;;;;;4.55;2.85;;;6.50;99.90;;;;;;5035976;28;20068;-72
2023/04/16 05:55:52;;;;;;;4.07;2.83;;;6.50;99.90;;;;;;5034817;28;20076;-71
2023/04/16 05:58:18;;;;;;;3.13;2.80;;;6.50;99.90;;;;;;5035676;28;20033;-71
2023/04/16 06:00:44;;;;;;;2.70;2.50;;;6.50;99.90;;;;;;5035305;28;20365;-71
2023/04/16 06:03:13;;;;;;;3.00;2.70;;;6.60;99.90;;;;;;5036145;28;20031;-70
2023/04/16 06:05:38;;;;;;;3.53;2.63;;;6.50;99.90;;;;;;5035465;28;20022;-70
2023/04/16 06:08:04;;;;;;;2.83;2.50;;;6.60;99.90;;;;;;5035467;28;20109;-71
2023/04/16 06:10:30;;;;;;;2.88;2.65;;;6.60;99.90;;;;;;5037058;28;20412;-71
2023/04/16 06:12:55;;;;;;;2.90;2.60;;;6.60;99.90;;;;;;5035474;28;20022;-70
2023/04/16 06:15:21;;;;;;;2.80;2.55;;;6.70;99.90;;;;;;5035800;28;20056;-71
2023/04/16 06:17:48;;;;;;;2.50;2.30;;;6.70;99.90;;;;;;5035129;28;20028;-71
2023/04/16 06:20:14;;;;;;;2.47;2.13;;;6.60;99.90;;;;;;5035569;28;20025;-71
2023/04/16 06:22:40;;;;;;;2.28;2.10;;;6.70;99.90;;;;;;5035401;28;20021;-72
2023/04/16 06:25:06;;;;;;;2.17;1.75;;;6.70;99.90;;;;;;5035550;28;20109;-71
2023/04/16 06:27:31;;;;;;;2.30;2.10;;;6.70;99.90;;;;;;5035041;28;20039;-72
2023/04/16 06:29:57;;;;;;;2.53;2.28;;;6.70;99.90;;;;;;5036192;28;20033;-71
2023/04/16 06:32:23;;;;;;;1.95;1.73;;;6.70;99.90;;;;;;5034821;28;20048;-71
2023/04/16 06:34:49;;;;;;;2.40;2.20;;;6.80;99.90;;;;;;5035674;28;20053;-71
2023/04/16 06:37:15;;;;;;;2.03;1.80;;;6.80;99.90;;;;;;5035567;28;20033;-73
2023/04/16 06:39:40;;;;;;;1.95;1.85;;;6.80;99.90;;;;;;5017467;28;20048;-71
2023/04/16 06:42:06;;;;;;;2.00;1.73;;;6.80;99.90;;;;;;5035818;28;20025;-71
2023/04/16 06:44:32;;;;;;;2.10;1.90;;;6.80;99.90;;;;;;5035544;28;20080;-70
2023/04/16 06:46:57;;;;;;;2.30;2.10;;;6.90;99.90;;;;;;5035822;28;20509;-70
2023/04/16 06:49:23;;;;;;;2.20;2.05;;;6.90;99.90;;;;;;5035330;28;20025;-70
2023/04/16 06:51:49;;;;;;;2.00;1.90;;;7.00;99.90;;;;;;5035789;28;20040;-70
2023/04/16 06:54:15;;;;;;;1.85;1.75;;;7.00;99.90;;;;;;5035272;28;20470;-69
2023/04/16 06:56:41;;;;;;;1.90;1.80;;;7.10;99.90;;;;;;5035595;28;20408;-70
2023/04/16 06:59:06;;;;;;;2.63;2.08;;;7.20;99.90;;;;;;5035264;28;20083;-69
2023/04/16 07:01:32;;;;;;;2.55;2.00;;;7.20;99.90;;;;;;5034729;28;20029;-71
2023/04/16 07:03:58;;;;;;;2.38;2.17;;;7.20;99.90;;;;;;5035020;28;20136;-70
2023/04/16 07:06:24;;;;;;;2.20;2.00;;;7.20;99.90;;;;;;5038821;28;20025;-71
2023/04/16 07:08:49;;;;;;;2.28;2.17;;;7.20;99.90;;;;;;5042101;28;20037;-70
2023/04/16 07:11:15;;;;;;;2.35;2.10;;;7.30;99.90;;;;;;5041394;28;20026;-71
2023/04/16 07:13:40;;;;;;;2.00;1.75;;;7.30;99.90;;;;;;5041712;28;20450;-71
2023/04/16 07:16:06;;;;;;;1.88;1.77;;;7.40;99.90;;;;;;5042183;28;20029;-70
2023/04/16 07:18:32;;;;;;;1.95;1.80;;;7.40;99.90;;;;;;5041606;28;20405;-70
2023/04/16 07:20:57;;;;;;;1.70;1.60;;;7.40;99.90;;;;;;5042218;28;20026;-71
2023/04/16 07:23:23;;;;;;;1.67;1.58;;;7.40;99.90;;;;;;5041564;28;20085;-71
2023/04/16 07:25:49;;;;;;;1.95;1.73;;;7.50;99.90;;;;;;5042099;28;20040;-71
2023/04/16 07:28:17;;;;;;;1.70;1.60;;;7.40;99.90;;;;;;5042422;28;20441;-71
2023/04/16 07:30:43;;;;;;;1.73;1.63;;;7.50;99.90;;;;;;5041189;28;20091;-72
2023/04/16 07:33:08;;;;;;;2.28;2.00;;;7.40;99.90;;;;;;5041037;28;20033;-71
2023/04/16 07:35:34;;;;;;;2.00;1.88;;;7.50;99.90;;;;;;5041786;28;20087;-71
2023/04/16 07:38:00;;;;;;;1.80;1.70;;;7.50;99.90;;;;;;5040966;28;20040;-71
2023/04/16 07:40:25;;;;;;;2.17;1.80;;;7.50;99.90;;;;;;5042128;28;20373;-72
2023/04/16 07:42:51;;;;;;;1.70;1.52;;;7.60;99.90;;;;;;5041371;28;20436;-70
2023/04/16 07:45:17;;;;;;;2.28;2.08;;;7.60;99.90;;;;;;5041887;28;20052;-71
2023/04/16 07:47:44;;;;;;;1.75;1.65;;;7.60;99.90;;;;;;5041425;28;20033;-71
2023/04/16 07:50:10;;;;;;;1.90;1.70;;;7.60;99.90;;;;;;5041227;28;20074;-71
2023/04/16 07:52:37;;;;;;;2.58;2.15;;;7.60;99.90;;;;;;5041623;28;20053;-70
2023/04/16 07:55:03;;;;;;;2.00;1.77;;;7.70;99.90;;;;;;5041199;28;20389;-71
2023/04/16 07:57:29;;;;;;;1.73;1.63;;;7.70;99.90;;;;;;5041521;28;20111;-70
2023/04/16 07:59:55;;;;;;;1.63;1.52;;;7.70;99.90;;;;;;5041750;28;20055;-71
2023/04/16 08:02:20;;;;;;;1.75;1.50;;;7.60;99.90;;;;;;5040733;28;20450;-70
2023/04/16 08:04:46;;;;;;;2.45;1.80;;;7.60;99.90;;;;;;5040713;28;20079;-71
2023/04/16 08:07:12;;;;;;;2.15;1.98;;;7.60;99.90;;;;;;5041113;28;20029;-70
2023/04/16 08:09:50;;;;;;;2.10;2.00;;;7.70;99.90;;;;;;5041332;28;20033;-72
2023/04/16 08:12:16;;;;;;;1.95;1.80;;;7.70;99.90;;;;;;5040903;28;20401;-70
2023/04/16 08:14:42;;;;;;;1.85;1.75;;;7.80;99.90;;;;;;5040887;28;20052;-70
2023/04/16 08:17:08;;;;;;;1.63;1.52;;;7.90;99.90;;;;;;5040128;28;20469;-71
2023/04/16 08:19:33;;;;;;;2.15;1.95;;;7.90;99.90;;;;;;5037780;28;20081;-71
2023/04/16 08:21:59;;;;;;;1.77;1.67;;;7.90;99.90;;;;;;5037879;28;20416;-71
2023/04/16 08:24:25;;;;;;;1.73;1.63;;;7.90;99.90;;;;;;5038302;28;20068;-70
2023/04/16 08:26:50;;;;;;;2.00;1.83;;;8.10;99.90;;;;;;5038221;28;20033;-71
2023/04/16 08:29:16;;;;;;;3.33;1.73;;;8.20;99.90;;;;;;5037408;28;20036;-73
2023/04/16 08:31:42;;;;;;;2.00;1.85;;;8.30;99.90;;;;;;5036661;28;20043;-70
2023/04/16 08:34:10;;;;;;;1.70;1.60;;;8.30;99.90;;;;;;5037533;28;20116;-71
2023/04/16 08:36:35;;;;;;;4.53;2.08;;;8.40;99.90;;;;;;5038374;28;20037;-71
2023/04/16 08:39:01;;;;;;;3.15;2.83;;;8.50;99.90;;;;;;5037845;28;20388;-71
2023/04/16 08:41:31;;;;;;;10.45;7.30;;;8.60;99.90;;;;;;5037972;28;20021;-71
2023/04/16 08:43:59;;;;;;;3.55;3.25;;;8.70;99.90;;;;;;5036536;28;20473;-70
2023/04/16 08:46:25;;;;;;;;;;;8.70;99.90;;;;;;5038418;28;20041;-71
2023/04/16 08:48:54;;;;;;;3.15;2.95;;;8.80;99.90;;;;;;5037740;28;19912;-70
2023/04/16 08:51:21;;;;;;;2.75;2.55;;;8.80;99.90;;;;;;5037810;28;20092;-71
2023/04/16 08:53:58;;;;;;;2.80;2.60;;;8.90;99.90;;;;;;5037515;28;20029;-72
2023/04/16 08:56:24;;;;;;;2.33;2.13;;;9.00;99.90;;;;;;5037671;28;20075;-71
2023/04/16 08:58:53;;;;;;;2.70;2.38;;;9.10;99.90;;;;;;5037878;28;20090;-71
2023/04/16 09:01:20;;;;;;;1.90;1.80;;;9.00;99.90;;;;;;5035545;28;20150;-70
2023/04/16 09:03:48;;;;;;;3.22;2.65;;;9.00;99.90;;;;;;5037773;28;20025;-72
2023/04/16 09:06:15;;;;;;;;;;;9.00;99.90;;;;;;5037736;28;20152;-71
2023/04/16 09:08:42;;;;;;;1.13;1.02;;;9.00;99.90;;;;;;5037374;28;19912;-71
2023/04/16 09:11:08;;;;;;;1.23;1.23;;;9.10;99.90;;;;;;5037303;28;20116;-72
2023/04/16 09:13:36;;;;;;;1.50;1.40;;;9.10;99.90;;;;;;5036865;28;20025;-72
2023/04/16 09:16:03;;;;;;;1.83;1.50;;;9.10;99.90;;;;;;5037230;28;20115;-72
2023/04/16 09:18:29;;;;;;;1.17;1.17;;;9.20;99.90;;;;;;5037160;28;20034;-72
2023/04/16 09:20:56;;;;;;;1.55;1.45;;;9.20;99.90;;;;;;5036857;28;20369;-72
2023/04/16 09:23:21;;;;;;;1.95;1.20;;;9.20;99.90;;;;;;5037383;28;20041;-71
2023/04/16 09:25:47;;;;;;;1.48;1.38;;;9.10;99.90;;;;;;5036705;28;20025;-70
2023/04/16 09:28:45;;;;;;;1.10;1.10;;;9.30;99.90;;;;;;5036567;28;20100;-71
2023/04/16 09:31:15;;;;;;;;;;;9.10;99.90;;;;;;5037127;28;20044;-71
2023/04/16 09:33:41;;;;;;;1.30;1.20;;;9.20;99.90;;;;;;5036769;28;19954;-71
2023/04/16 09:36:07;;;;;;;1.00;1.00;;;9.10;99.90;;;;;;5036890;28;20040;-70
2023/04/16 09:38:51;;;;;;;1.80;1.70;;;9.20;99.90;;;;;;5036972;28;20025;-71
2023/04/16 09:41:17;;;;;;;1.30;1.20;;;9.30;99.90;;;;;;5037145;28;20037;-71
2023/04/16 09:43:57;;;;;;;1.20;1.20;;;9.40;99.90;;;;;;5036492;28;20370;-71
2023/04/16 09:46:43;;;;;;;1.08;1.08;;;9.40;99.90;;;;;;5037018;28;20029;-71
2023/04/16 09:49:13;;;;;;;1.38;1.27;;;9.40;99.90;;;;;;5035299;28;20037;-70
2023/04/16 09:51:54;;;;;;;1.67;1.50;;;9.50;99.90;;;;;;5036551;28;20044;-72
2023/04/16 09:54:20;;;;;;;1.80;1.40;;;9.60;99.90;;;;;;5036337;28;20076;-71
2023/04/16 09:56:46;;;;;;;1.02;1.02;;;9.60;99.90;;;;;;5036502;28;20408;-71
2023/04/16 09:59:19;;;;;;;1.13;1.13;;;9.70;99.90;;;;;;5036713;28;20036;-71
2023/04/16 10:01:45;;;;;;;1.50;1.40;;;9.70;99.90;;;;;;5035295;28;20041;-71
2023/04/16 10:04:11;;;;;;;0.82;0.82;;;9.70;99.90;;;;;;5035701;28;20029;-71
2023/04/16 10:06:37;;;;;;;0.80;0.80;;;9.80;99.90;;;;;;5036244;28;20033;-71
2023/04/16 10:09:06;;;;;;;0.70;0.70;;;9.60;99.90;;;;;;5036383;28;20033;-70
2023/04/16 10:11:32;;;;;;;0.60;0.60;;;9.50;99.90;;;;;;5035827;28;20060;-71
2023/04/16 10:13:58;;;;;;;1.63;0.70;;;9.50;99.90;;;;;;5036040;28;20437;-71
2023/04/16 10:16:24;;;;;;;0.70;0.70;;;9.60;99.90;;;;;;5036246;28;20061;-71
2023/04/16 10:18:51;;;;;;;0.70;0.70;;;9.60;99.90;;;;;;5036235;28;20044;-72
2023/04/16 10:21:18;;;;;;;0.68;0.68;;;9.60;99.90;;;;;;5034642;28;20036;-73
2023/04/16 10:23:43;;;;;;;0.77;0.77;;;9.60;99.90;;;;;;5035932;28;20025;-72
2023/04/16 10:26:09;;;;;;;0.60;0.60;;;9.60;99.90;;;;;;5035979;28;20526;-72
2023/04/16 10:28:36;;;;;;;0.70;0.70;;;9.70;99.90;;;;;;5036282;28;20480;-71
2023/04/16 10:31:04;;;;;;;0.68;0.68;;;9.60;99.90;;;;;;5035283;28;20043;-71
2023/04/16 10:33:33;;;;;;;1.02;0.60;;;9.60;99.90;;;;;;5036026;28;20480;-71
2023/04/16 10:36:12;;;;;;;0.55;0.55;;;9.50;99.90;;;;;;5035597;28;20371;-71
2023/04/16 10:38:46;;;;;;;0.70;0.70;;;9.50;99.90;;;;;;5035292;28;20388;-71
2023/04/16 10:41:12;;;;;;;0.50;0.50;;;9.50;99.90;;;;;;5035157;28;20025;-71
2023/04/16 10:43:49;;;;;;;0.70;0.70;;;9.60;99.90;;;;;;5036170;28;20084;-71
2023/04/16 10:46:32;;;;;;;0.60;0.60;;;9.60;99.90;;;;;;5035043;28;20028;-71
2023/04/16 10:49:11;;;;;;;0.75;0.75;;;9.60;99.90;;;;;;5036269;28;20040;-71
2023/04/16 10:51:36;;;;;;;0.93;0.93;;;9.60;99.90;;;;;;5035834;28;20049;-71
2023/04/16 10:54:10;;;;;;;0.60;0.60;;;9.60;99.90;;;;;;5035770;28;20025;-71
2023/04/16 10:56:35;;;;;;;0.93;0.93;;;9.60;99.90;;;;;;5035542;28;20033;-71
2023/04/16 10:59:05;;;;;;;1.20;0.80;;;9.60;99.90;;;;;;5036151;28;20033;-71
2023/04/16 11:01:36;;;;;;;0.70;0.70;;;9.60;99.90;;;;;;5034747;28;20036;-71
2023/04/16 11:04:26;;;;;;;0.77;0.77;;;9.60;99.90;;;;;;5035987;28;20029;-73
2023/04/16 11:07:13;;;;;;;0.52;0.52;;;9.60;99.90;;;;;;5020873;28;20037;-71
2023/04/16 11:09:46;;;;;;;0.68;0.68;;;9.60;99.90;;;;;;5034992;28;20112;-71
2023/04/16 11:12:28;;;;;;;0.70;0.70;;;9.60;99.90;;;;;;5035101;28;20025;-72
2023/04/16 11:15:04;;;;;;;0.63;0.63;;;9.60;99.90;;;;;;5035484;28;20038;-71
2023/04/16 11:17:35;;;;;;;0.52;0.52;;;9.60;99.90;;;;;;5035891;28;20026;-71
2023/04/16 11:20:01;;;;;;;0.70;0.52;;;9.50;99.90;;;;;;5034725;28;20040;-72
2023/04/16 11:22:27;;;;;;;0.60;0.60;;;9.60;99.90;;;;;;5034681;28;20068;-71
2023/04/16 11:24:56;;;;;;;0.50;0.50;;;9.50;99.90;;;;;;5034202;28;20500;-72
2023/04/16 11:27:23;;;;;;;0.57;0.57;;;9.50;99.90;;;;;;5035152;28;20033;-71
2023/04/16 11:29:58;;;;;;;0.60;0.60;;;9.50;99.90;;;;;;5034980;28;20420;-71
2023/04/16 11:32:24;;;;;;;0.60;0.60;;;9.50;99.90;;;;;;5034670;28;20056;-70
2023/04/16 11:34:50;;;;;;;0.70;0.70;;;9.50;99.90;;;;;;5035510;28;20029;-71
2023/04/16 11:37:39;;;;;;;0.60;0.60;;;9.50;99.90;;;;;;5035160;28;20167;-70
2023/04/16 11:40:07;;;;;;;0.80;0.80;;;9.50;99.90;;;;;;5035384;28;20092;-71
2023/04/16 11:42:35;;;;;;;0.80;0.80;;;9.60;99.90;;;;;;5035382;28;20040;-71
2023/04/16 11:45:02;;;;;;;0.85;0.85;;;9.70;99.90;;;;;;5035067;28;20033;-71
2023/04/16 11:47:31;;;;;;;0.90;0.90;;;9.60;99.90;;;;;;5036040;28;20025;-72
2023/04/16 11:49:57;;;;;;;1.10;0.90;;;9.70;99.90;;;;;;5035942;28;20029;-70
2023/04/16 11:52:31;;;;;;;0.95;0.80;;;9.70;99.90;;;;;;5035443;28;20029;-71
2023/04/16 11:54:58;;;;;;;1.23;0.90;;;9.80;99.90;;;;;;5039659;28;20040;-73
2023/04/16 11:57:29;;;;;;;0.90;0.90;;;9.80;99.90;;;;;;5038239;28;20043;-71
2023/04/16 11:59:56;;;;;;;1.10;1.10;;;9.80;99.90;;;;;;5039508;28;20440;-72
2023/04/16 12:02:38;;;;;;;1.27;1.10;;;9.80;99.90;;;;;;5038825;28;20474;-71
2023/04/16 12:05:24;;;;;;;1.30;1.20;;;9.90;99.90;;;;;;5039120;28;20021;-71
2023/04/16 12:07:49;;;;;;;1.00;1.00;;;9.90;99.90;;;;;;5038978;28;20033;-72
2023/04/16 12:10:15;;;;;;;1.25;1.13;;;10.00;99.90;;;;;;5039100;28;20034;-71
2023/04/16 12:12:41;;;;;;;1.52;1.42;;;10.20;99.90;;;;;;5038373;28;20040;-72
2023/04/16 12:15:07;;;;;;;1.40;1.30;;;10.20;99.90;;;;;;5039341;28;20056;-71
2023/04/16 12:17:34;;;;;;;1.38;1.27;;;10.30;99.90;;;;;;5039264;28;20033;-71
2023/04/16 12:20:01;;;;;;;1.50;1.40;;;10.40;99.90;;;;;;5039276;28;20521;-72
2023/04/16 12:22:30;;;;;;;1.15;1.05;;;10.40;99.90;;;;;;5039005;28;20474;-72
2023/04/16 12:25:05;;;;;;;1.27;1.27;;;10.40;99.90;;;;;;5039061;28;20163;-72
2023/04/16 12:27:50;;;;;;;1.27;1.10;;;10.50;99.90;;;;;;5038246;28;20083;-73
2023/04/16 12:30:17;;;;;;;1.50;1.00;;;10.50;99.90;;;;;;5038105;28;20458;-72
2023/04/16 12:32:46;;;;;;;1.15;1.08;;;10.50;99.90;;;;;;5037765;28;20513;-71
2023/04/16 12:35:12;;;;;;;1.02;0.90;;;10.60;99.90;;;;;;5038236;28;20547;-71
2023/04/16 12:37:38;;;;;;;1.27;1.17;;;10.60;99.90;;;;;;5038477;28;20104;-71
2023/04/16 12:40:05;;;;;;;1.30;1.13;;;10.60;99.90;;;;;;5037773;28;20038;-71
2023/04/16 12:42:34;;;;;;;1.17;1.08;;;10.70;99.90;;;;;;5038164;28;20055;-72
2023/04/16 12:45:04;;;;;;;1.20;1.10;;;10.80;99.90;;;;;;5038215;28;20109;-72
2023/04/16 12:47:33;;;;;;;1.17;1.08;;;10.70;99.90;;;;;;5038792;28;20025;-72
2023/04/16 12:49:59;;;;;;;1.55;1.02;;;10.80;99.90;;;;;;5038874;28;20112;-72
2023/04/16 12:52:25;;;;;;;0.80;0.80;;;10.80;99.90;;;;;;5038797;28;20029;-72
2023/04/16 12:54:52;;;;;;;0.95;0.95;;;10.70;99.90;;;;;;5038425;28;20453;-72
2023/04/16 12:57:17;;;;;;;1.65;1.13;;;10.80;99.90;;;;;;5038665;28;20029;-72